Robert G. Brownlee — WCY4665 — position and weather

sailwx.info

Track history (hours):
 
Tides and Currents Weather Stations Pressure Air Temp Water Temp Dewpoint Dewpoint Depression Visibility Wind Speed Wind Dir Waves Ship Positions

Robert G. Brownlee

Owner: MARINE SCIENCE INSTITUTE, REDWOOD CITY, CA. More information available from US FCC via Universal Licensing System and Coast Guard Vessel Documentation Center.

Last reported at 2018-Apr-10 21:49 UTC. Time now 2018-Apr-23 15:21 UTC.
Position N 37°47' W 122°17'.
Warning: this ship's position is 12 days out of date.

MMSI: 366751060.

Date/timePositionNaut miles runAvg speedWind from/ knotsBaromVisibWave heightAir tempDewpointWater temp
2018-Apr-10 21:49N 37°47' W 122°17'0 0.0
2018-Apr-10 21:30N 37°47' W 122°17'0 0.0
2018-Apr-10 21:00N 37°47' W 122°17'0 0.0
2018-Apr-10 20:30N 37°47' W 122°17'0 0.0
2018-Apr-10 20:00N 37°47' W 122°17'0 0.0
2018-Apr-10 19:30N 37°47' W 122°17'0 0.0
2018-Apr-10 19:00N 37°47' W 122°17'0 0.0
2018-Apr-10 18:30N 37°47' W 122°17'0 0.0
2018-Apr-10 18:00N 37°47' W 122°17'0 0.0
2018-Apr-10 17:30N 37°47' W 122°17'2 3.6
2018-Apr-10 17:00N 37°48' W 122°20'3 5.0
2018-Apr-10 16:30N 37°45' W 122°19'3 5.8
2018-Apr-10 15:58N 37°43' W 122°17'6 5.2
2018-Apr-10 14:46N 37°37' W 122°15'2 5.3
2018-Apr-10 14:28N 37°35' W 122°15'  
Track history (hours):
 
Tides and Currents Weather Stations Pressure Air Temp Water Temp Dewpoint Dewpoint Depression Visibility Wind Speed Wind Dir Waves Ship Positions

Robert G. Brownlee

Owner: MARINE SCIENCE INSTITUTE, REDWOOD CITY, CA. More information available from US FCC via Universal Licensing System and Coast Guard Vessel Documentation Center.

Last reported at 2018-Apr-10 21:49 UTC. Time now 2018-Apr-23 15:21 UTC.
Position N 37°47' W 122°17'.
Warning: this ship's position is 12 days out of date.

MMSI: 366751060.

Date/timePositionNaut miles runAvg speedWind from/ knotsBaromVisibWave heightAir tempDewpointWater temp
2018-Apr-10 21:49N 37°47' W 122°17'0 0.0
2018-Apr-10 21:30N 37°47' W 122°17'0 0.0
2018-Apr-10 21:00N 37°47' W 122°17'0 0.0
2018-Apr-10 20:30N 37°47' W 122°17'0 0.0
2018-Apr-10 20:00N 37°47' W 122°17'0 0.0
2018-Apr-10 19:30N 37°47' W 122°17'0 0.0
2018-Apr-10 19:00N 37°47' W 122°17'0 0.0
2018-Apr-10 18:30N 37°47' W 122°17'0 0.0
2018-Apr-10 18:00N 37°47' W 122°17'0 0.0
2018-Apr-10 17:30N 37°47' W 122°17'2 3.6
2018-Apr-10 17:00N 37°48' W 122°20'3 5.0
2018-Apr-10 16:30N 37°45' W 122°19'3 5.8
2018-Apr-10 15:58N 37°43' W 122°17'6 5.2
2018-Apr-10 14:46N 37°37' W 122°15'2 5.3
2018-Apr-10 14:28N 37°35' W 122°15'  

Dump ship's entire track history